createdAt,value
2019-02-22T00:01:38.783Z,98.20
2019-02-22T00:04:07.115Z,98.20
2019-02-22T00:06:35.480Z,98.40
2019-02-22T00:09:05.301Z,98.40
2019-02-22T00:11:33.707Z,98.50
2019-02-22T00:14:02.428Z,98.40
2019-02-22T00:16:35.618Z,98.60
2019-02-22T00:19:11.301Z,98.50
2019-02-22T00:21:43.097Z,98.80
2019-02-22T00:24:16.833Z,98.70
2019-02-22T00:26:45.281Z,98.80
2019-02-22T00:29:13.627Z,98.70
2019-02-22T00:31:41.944Z,98.70
2019-02-22T00:34:10.333Z,98.80
2019-02-22T00:36:38.672Z,98.90
2019-02-22T00:39:07.056Z,98.60
2019-02-22T00:41:35.421Z,98.70
2019-02-22T00:44:05.880Z,98.60
2019-02-22T00:46:35.601Z,98.50
2019-02-22T00:49:03.991Z,98.60
2019-02-22T00:51:35.458Z,98.60
2019-02-22T00:54:04.261Z,98.70
2019-02-22T00:56:38.596Z,98.60
2019-02-22T00:59:08.747Z,98.50
2019-02-22T01:01:37.345Z,98.60
2019-02-22T01:04:05.909Z,98.60
2019-02-22T01:06:34.406Z,98.50
2019-02-22T01:09:05.599Z,98.60
2019-02-22T01:11:35.362Z,98.60
2019-02-22T01:14:03.740Z,98.50
2019-02-22T01:16:32.082Z,98.50
2019-02-22T01:19:02.001Z,98.70
2019-02-22T01:21:30.543Z,98.90
2019-02-22T01:23:58.939Z,98.80
2019-02-22T01:26:29.118Z,98.80
2019-02-22T01:28:57.451Z,98.60
2019-02-22T01:31:25.799Z,98.80
2019-02-22T01:33:54.331Z,98.70
2019-02-22T01:36:22.889Z,98.80
2019-02-22T01:38:53.564Z,98.80
2019-02-22T01:41:21.844Z,98.80
2019-02-22T01:43:50.163Z,98.90
2019-02-22T01:46:21.588Z,98.80
2019-02-22T01:48:50.006Z,98.80
2019-02-22T01:51:20.145Z,98.70
2019-02-22T01:53:48.586Z,98.70
2019-02-22T01:56:18.161Z,98.80
2019-02-22T01:58:48.896Z,98.60
2019-02-22T02:01:16.563Z,98.60
2019-02-22T02:03:44.907Z,98.60
2019-02-22T02:06:13.429Z,98.40
2019-02-22T02:08:42.104Z,98.60
2019-02-22T02:11:10.381Z,98.80
2019-02-22T02:13:38.774Z,98.90
2019-02-22T02:16:09.223Z,98.80
2019-02-22T02:18:40.883Z,98.70
2019-02-22T02:21:09.267Z,98.60
2019-02-22T02:23:37.546Z,98.60
2019-02-22T02:26:05.829Z,98.60
2019-02-22T02:28:34.227Z,98.40
2019-02-22T02:31:02.595Z,98.20
2019-02-22T02:33:31.016Z,98.40
2019-02-22T02:35:59.340Z,98.50
2019-02-22T02:38:27.619Z,98.60
2019-02-22T02:41:07.065Z,98.40
2019-02-22T02:43:26.003Z,98.30
2019-02-22T02:45:54.286Z,98.50
2019-02-22T02:48:22.658Z,98.50
2019-02-22T02:50:51.044Z,98.30
2019-02-22T02:53:19.404Z,98.40
2019-02-22T02:55:47.759Z,98.30
2019-02-22T02:58:16.336Z,98.00
2019-02-22T03:00:44.633Z,97.70
2019-02-22T03:03:13.005Z,97.70
2019-02-22T03:05:45.503Z,97.60
2019-02-22T03:08:13.788Z,97.80
2019-02-22T03:10:42.063Z,97.70
2019-02-22T03:13:10.435Z,97.80
2019-02-22T03:15:38.789Z,97.80
2019-02-22T03:18:07.091Z,97.70
2019-02-22T03:20:35.413Z,97.60
2019-02-22T03:23:03.748Z,97.60
2019-02-22T03:25:32.024Z,97.50
2019-02-22T03:28:00.338Z,97.60
2019-02-22T03:30:28.695Z,97.60
2019-02-22T03:32:57.046Z,97.30
2019-02-22T03:35:25.444Z,97.20
2019-02-22T03:37:53.819Z,97.30
2019-02-22T03:40:22.173Z,97.30
2019-02-22T03:42:50.494Z,97.50
2019-02-22T03:45:18.851Z,97.40
2019-02-22T03:47:47.131Z,97.30
2019-02-22T03:50:15.436Z,97.50
2019-02-22T03:52:45.364Z,97.40
2019-02-22T03:55:13.642Z,96.90
2019-02-22T03:57:42.070Z,97.00
2019-02-22T04:00:11.099Z,96.90
2019-02-22T04:02:39.390Z,96.80
2019-02-22T04:05:08.116Z,96.20
2019-02-22T04:07:36.482Z,96.10
2019-02-22T04:10:06.409Z,96.10
2019-02-22T04:12:34.790Z,96.40
2019-02-22T04:15:03.804Z,96.10
2019-02-22T04:17:32.169Z,96.20
2019-02-22T04:20:00.547Z,95.90
2019-02-22T04:22:28.871Z,96.00
2019-02-22T04:24:57.319Z,95.50
2019-02-22T04:27:25.694Z,95.30
2019-02-22T04:29:53.975Z,95.10
2019-02-22T04:32:22.354Z,95.30
2019-02-22T04:34:50.743Z,96.00
2019-02-22T04:37:19.023Z,96.00
2019-02-22T04:39:47.285Z,95.90
2019-02-22T04:42:15.588Z,95.30
2019-02-22T04:44:43.857Z,95.40
2019-02-22T04:47:12.192Z,95.80
2019-02-22T04:49:40.559Z,96.00
2019-02-22T04:52:08.847Z,95.60
2019-02-22T04:54:37.193Z,95.50
2019-02-22T04:57:05.499Z,95.80
2019-02-22T04:59:33.914Z,95.90
2019-02-22T05:02:02.467Z,96.20
2019-02-22T05:04:30.840Z,96.00
2019-02-22T05:06:59.149Z,95.60
2019-02-22T05:09:27.496Z,95.50
2019-02-22T05:11:55.879Z,95.50
2019-02-22T05:14:24.227Z,95.50
2019-02-22T05:16:52.503Z,95.60
2019-02-22T05:19:20.816Z,94.80
2019-02-22T05:21:49.118Z,94.70
2019-02-22T05:24:17.458Z,95.00
2019-02-22T05:26:45.761Z,95.30
2019-02-22T05:29:14.146Z,95.60
2019-02-22T05:31:42.459Z,95.60
2019-02-22T05:34:10.772Z,95.40
2019-02-22T05:36:39.128Z,94.80
2019-02-22T05:39:18.408Z,94.20
2019-02-22T05:41:37.421Z,94.00
2019-02-22T05:44:05.691Z,93.40
2019-02-22T05:46:33.965Z,93.70
2019-02-22T05:49:02.435Z,94.00
2019-02-22T05:51:30.717Z,94.50
2019-02-22T05:53:59.061Z,94.30
2019-02-22T05:56:27.459Z,94.00
2019-02-22T05:58:55.737Z,94.00
2019-02-22T06:01:24.099Z,94.10
2019-02-22T06:03:52.774Z,94.10
2019-02-22T06:06:21.051Z,94.00
2019-02-22T06:08:49.396Z,93.80
2019-02-22T06:11:17.712Z,94.40
2019-02-22T06:13:46.055Z,93.90
2019-02-22T06:16:14.445Z,93.90
2019-02-22T06:18:42.836Z,93.70
2019-02-22T06:21:11.184Z,93.40
2019-02-22T06:23:39.524Z,93.20
2019-02-22T06:26:07.855Z,93.50
2019-02-22T06:28:36.186Z,93.30
2019-02-22T06:31:04.462Z,93.10
2019-02-22T06:33:33.031Z,93.30
2019-02-22T06:36:01.388Z,93.00
2019-02-22T06:38:29.739Z,93.40
2019-02-22T06:40:58.131Z,93.40
2019-02-22T06:43:26.412Z,93.40
2019-02-22T06:45:54.759Z,93.90
2019-02-22T06:48:23.064Z,93.70
2019-02-22T06:50:51.339Z,93.40
2019-02-22T06:53:19.617Z,94.00
2019-02-22T06:55:48.179Z,93.70
2019-02-22T06:58:16.741Z,93.40
2019-02-22T07:00:45.649Z,93.30
2019-02-22T07:03:14.120Z,93.10
2019-02-22T07:05:42.744Z,93.00
2019-02-22T07:08:11.051Z,92.80
2019-02-22T07:10:52.972Z,93.10
2019-02-22T07:13:21.319Z,93.00
2019-02-22T07:15:49.603Z,93.00
2019-02-22T07:18:17.919Z,93.20
2019-02-22T07:20:46.268Z,93.10
2019-02-22T07:23:14.640Z,93.10
2019-02-22T07:25:43.019Z,93.00
2019-02-22T07:28:11.434Z,93.10
2019-02-22T07:30:39.776Z,92.50
2019-02-22T07:33:08.079Z,91.60
2019-02-22T07:35:36.359Z,91.80
2019-02-22T07:38:04.636Z,92.00
2019-02-22T07:40:32.961Z,91.60
2019-02-22T07:43:08.046Z,90.80
2019-02-22T07:45:31.311Z,90.50
2019-02-22T07:47:59.675Z,90.50
2019-02-22T07:50:28.038Z,90.30
2019-02-22T07:52:56.375Z,90.20
2019-02-22T07:55:24.690Z,90.20
2019-02-22T07:57:53.050Z,90.30
2019-02-22T08:00:21.348Z,90.90
2019-02-22T08:02:49.719Z,91.40
2019-02-22T08:05:18.000Z,92.10
2019-02-22T08:07:46.459Z,92.20
2019-02-22T08:10:14.780Z,91.90
2019-02-22T08:12:44.715Z,91.90
2019-02-22T08:15:13.063Z,91.70
2019-02-22T08:17:41.467Z,91.70
2019-02-22T08:20:09.764Z,91.70
2019-02-22T08:22:38.119Z,91.50
2019-02-22T08:25:07.335Z,91.40
2019-02-22T08:27:35.687Z,91.00
2019-02-22T08:30:04.591Z,91.00
2019-02-22T08:32:32.917Z,90.30
2019-02-22T08:35:01.494Z,90.00
2019-02-22T08:37:29.900Z,89.60
2019-02-22T08:39:59.044Z,89.10
2019-02-22T08:42:27.548Z,88.80
2019-02-22T08:44:55.827Z,88.10
2019-02-22T08:47:24.216Z,87.80
2019-02-22T08:49:52.503Z,87.60
2019-02-22T08:52:20.879Z,87.60
2019-02-22T08:54:49.295Z,86.20
2019-02-22T08:57:17.643Z,84.60
2019-02-22T08:59:48.880Z,85.00
2019-02-22T09:02:17.263Z,83.40
2019-02-22T09:04:45.619Z,81.20
2019-02-22T09:07:14.039Z,79.70
2019-02-22T09:09:42.718Z,77.90
2019-02-22T09:12:11.037Z,77.60
2019-02-22T09:14:39.346Z,76.30
2019-02-22T09:17:07.722Z,76.50
2019-02-22T09:19:35.995Z,67.70
2019-02-22T09:22:23.855Z,57.80
2019-02-22T09:24:52.351Z,50.40
2019-02-22T09:27:20.626Z,48.40
2019-02-22T09:29:58.615Z,46.20
2019-02-22T09:32:19.142Z,42.60
2019-02-22T09:34:47.477Z,42.10
2019-02-22T09:37:15.778Z,41.50
2019-02-22T09:39:44.051Z,41.10
2019-02-22T09:42:12.331Z,39.50
2019-02-22T09:44:40.815Z,38.10
2019-02-22T09:47:28.523Z,38.50
2019-02-22T09:49:56.835Z,41.90
2019-02-22T09:52:25.116Z,43.40
2019-02-22T09:54:53.495Z,43.70
2019-02-22T09:57:21.832Z,41.50
2019-02-22T09:59:50.202Z,38.30
2019-02-22T10:02:18.523Z,35.50
2019-02-22T10:04:54.650Z,32.80
2019-02-22T10:07:17.021Z,33.30
2019-02-22T10:09:45.366Z,34.70
2019-02-22T10:12:18.906Z,35.50
2019-02-22T10:17:36.363Z,35.80
2019-02-22T10:20:07.606Z,41.60
2019-02-22T10:22:35.947Z,46.40
2019-02-22T10:25:06.735Z,49.00
2019-02-22T10:27:35.067Z,51.90
2019-02-22T10:30:03.707Z,53.90
2019-02-22T10:32:32.095Z,53.50
2019-02-22T10:35:00.367Z,53.60
2019-02-22T10:37:28.706Z,52.50
2019-02-22T10:39:57.013Z,50.70
2019-02-22T10:42:25.298Z,48.20
2019-02-22T10:44:53.567Z,43.80
2019-02-22T10:47:21.871Z,40.10
2019-02-22T10:49:50.224Z,39.10
2019-02-22T10:52:21.409Z,38.40
2019-02-22T10:54:49.887Z,37.60
2019-02-22T10:57:18.223Z,36.40
2019-02-22T10:59:46.499Z,34.90
2019-02-22T11:02:14.814Z,35.10
2019-02-22T11:04:43.167Z,36.90
2019-02-22T11:07:11.465Z,37.10
2019-02-22T11:09:40.053Z,36.80
2019-02-22T11:12:08.400Z,37.80
2019-02-22T11:14:37.571Z,37.20
2019-02-22T11:17:05.925Z,37.40
2019-02-22T11:19:34.206Z,36.80
2019-02-22T11:22:02.492Z,39.50
2019-02-22T11:24:30.863Z,43.20
2019-02-22T11:26:59.178Z,39.50
2019-02-22T11:29:27.619Z,39.40
2019-02-22T11:31:55.993Z,38.40
2019-02-22T11:34:24.271Z,36.90
2019-02-22T11:36:52.544Z,37.00
2019-02-22T11:39:20.971Z,34.40
2019-02-22T11:41:49.812Z,33.50
2019-02-22T11:44:18.155Z,34.40
2019-02-22T11:46:46.475Z,31.90
2019-02-22T11:49:14.859Z,32.30
2019-02-22T11:51:43.124Z,34.10
2019-02-22T11:54:11.509Z,35.50
2019-02-22T11:56:39.855Z,37.40
2019-02-22T11:59:08.139Z,35.00
2019-02-22T12:01:38.092Z,36.70
2019-02-22T12:04:06.359Z,38.10
2019-02-22T12:06:34.738Z,40.20
2019-02-22T12:09:03.187Z,37.10
2019-02-22T12:11:31.451Z,32.80
2019-02-22T12:13:59.723Z,32.40
2019-02-22T12:16:29.021Z,31.20
2019-02-22T12:18:57.291Z,32.20
2019-02-22T12:21:26.953Z,32.80
2019-02-22T12:23:54.648Z,33.00
2019-02-22T12:26:22.925Z,32.80
2019-02-22T12:28:51.207Z,31.10
2019-02-22T12:31:19.631Z,31.30
2019-02-22T12:33:48.195Z,30.90
2019-02-22T12:36:16.538Z,30.30
2019-02-22T12:38:44.957Z,30.00
2019-02-22T12:41:13.308Z,29.90
2019-02-22T12:43:41.572Z,30.80
2019-02-22T12:46:09.961Z,31.90
2019-02-22T12:48:38.371Z,31.00
2019-02-22T12:51:06.672Z,31.30
2019-02-22T12:53:34.983Z,29.50
2019-02-22T12:56:03.889Z,30.40
2019-02-22T12:58:32.470Z,29.10
2019-02-22T13:01:00.863Z,28.90
2019-02-22T13:03:29.503Z,29.20
2019-02-22T13:05:57.996Z,30.40
2019-02-22T13:08:26.291Z,30.30
2019-02-22T13:10:54.597Z,30.20
2019-02-22T13:13:22.919Z,29.30
2019-02-22T13:15:51.245Z,29.20
2019-02-22T13:18:19.651Z,29.30
2019-02-22T13:20:47.935Z,28.60
2019-02-22T13:23:16.350Z,26.80
2019-02-22T13:25:44.626Z,26.50
2019-02-22T13:28:12.903Z,26.20
2019-02-22T13:30:41.298Z,26.00
2019-02-22T13:33:09.662Z,25.80
2019-02-22T13:35:38.011Z,25.80
2019-02-22T13:38:06.408Z,25.00
2019-02-22T13:40:34.697Z,25.40
2019-02-22T13:43:05.308Z,26.40
2019-02-22T13:45:33.075Z,27.20
2019-02-22T13:48:01.351Z,28.10
2019-02-22T13:50:29.623Z,28.40
2019-02-22T13:52:58.043Z,28.20
2019-02-22T13:55:26.400Z,26.10
2019-02-22T13:57:54.752Z,26.10
2019-02-22T14:00:23.128Z,25.90
2019-02-22T14:02:51.412Z,27.00
2019-02-22T14:05:19.694Z,27.20
2019-02-22T14:07:57.555Z,27.40
2019-02-22T14:10:26.164Z,25.40
2019-02-22T14:12:54.447Z,25.30
2019-02-22T14:15:22.824Z,27.00
2019-02-22T14:17:51.096Z,26.90
2019-02-22T14:20:19.698Z,25.90
2019-02-22T14:22:49.787Z,24.80
2019-02-22T14:25:18.118Z,24.20
2019-02-22T14:27:46.385Z,24.40
2019-02-22T14:30:16.113Z,24.60
2019-02-22T14:32:44.465Z,25.30
2019-02-22T14:35:12.740Z,26.40
2019-02-22T14:37:41.328Z,26.30
2019-02-22T14:40:11.854Z,26.10
2019-02-22T14:42:40.129Z,24.90
2019-02-22T14:45:10.946Z,25.80
2019-02-22T14:47:39.299Z,25.90
2019-02-22T14:50:10.705Z,26.20
2019-02-22T14:52:39.164Z,27.20
2019-02-22T14:55:08.338Z,28.10
2019-02-22T14:57:36.627Z,28.20
2019-02-22T15:00:16.967Z,28.70
2019-02-22T15:02:45.240Z,28.50
2019-02-22T15:05:14.457Z,28.50
2019-02-22T15:07:42.836Z,27.90
2019-02-22T15:10:11.461Z,28.50
2019-02-22T15:12:39.738Z,28.80
2019-02-22T15:15:14.209Z,27.80
2019-02-22T15:17:44.197Z,27.90
2019-02-22T15:20:12.492Z,29.40
2019-02-22T15:22:40.997Z,30.30
2019-02-22T15:25:11.585Z,30.10
2019-02-22T15:27:39.931Z,30.60
2019-02-22T15:30:10.907Z,31.20
2019-02-22T15:32:39.219Z,31.20
2019-02-22T15:35:10.204Z,32.10
2019-02-22T15:37:38.523Z,33.00
2019-02-22T15:40:09.714Z,35.20
2019-02-22T15:42:40.460Z,36.30
2019-02-22T15:45:15.865Z,37.40
2019-02-22T15:47:44.373Z,36.80
2019-02-22T15:50:16.703Z,37.10
2019-02-22T15:52:45.756Z,36.80
2019-02-22T15:55:14.563Z,37.60
2019-02-22T15:57:43.020Z,38.20
2019-02-22T16:00:14.803Z,38.50
2019-02-22T16:02:43.251Z,39.50
2019-02-22T16:05:13.174Z,41.00
2019-02-22T16:07:44.667Z,41.50
2019-02-22T16:10:11.492Z,42.80
2019-02-22T16:12:39.839Z,43.30
2019-02-22T16:15:09.964Z,43.60
2019-02-22T16:17:38.320Z,43.70
2019-02-22T16:20:07.968Z,44.50
2019-02-22T16:22:36.280Z,44.20
2019-02-22T16:25:06.124Z,43.80
2019-02-22T16:27:33.729Z,43.80
2019-02-22T16:30:02.099Z,44.70
2019-02-22T16:32:30.380Z,44.70
2019-02-22T16:34:58.655Z,44.90
2019-02-22T16:37:27.031Z,44.00
2019-02-22T16:39:55.316Z,43.90
2019-02-22T16:42:23.594Z,44.10
2019-02-22T16:44:51.903Z,43.80
2019-02-22T16:47:20.175Z,43.70
2019-02-22T16:49:48.444Z,43.80
2019-02-22T16:52:16.823Z,44.40
2019-02-22T16:54:45.156Z,45.00
2019-02-22T16:57:13.431Z,45.90
2019-02-22T16:59:41.831Z,46.90
2019-02-22T17:02:10.116Z,47.40
2019-02-22T17:04:38.480Z,48.10
2019-02-22T17:07:06.889Z,48.60
2019-02-22T17:09:35.213Z,48.70
2019-02-22T17:12:06.442Z,48.40
2019-02-22T17:14:33.618Z,48.90
2019-02-22T17:17:01.966Z,48.40
2019-02-22T17:19:30.367Z,48.40
2019-02-22T17:21:58.703Z,48.00
2019-02-22T17:24:27.036Z,48.10
2019-02-22T17:26:55.719Z,48.00
2019-02-22T17:29:24.045Z,48.20
2019-02-22T17:31:52.324Z,48.90
2019-02-22T17:34:20.605Z,49.20
2019-02-22T17:36:48.983Z,50.40
2019-02-22T17:39:17.259Z,50.60
2019-02-22T17:41:45.528Z,51.90
2019-02-22T17:44:13.980Z,52.70
2019-02-22T17:46:42.253Z,53.10
2019-02-22T17:49:10.523Z,53.10
2019-02-22T17:51:38.844Z,53.70
2019-02-22T17:54:07.119Z,53.50
2019-02-22T17:56:35.391Z,54.30
2019-02-22T17:59:03.694Z,54.00
2019-02-22T18:01:32.011Z,54.00
2019-02-22T18:04:00.289Z,53.90
2019-02-22T18:06:28.595Z,53.90
2019-02-22T18:08:57.045Z,53.90
2019-02-22T18:11:25.311Z,54.00
2019-02-22T18:13:53.695Z,54.10
2019-02-22T18:16:21.988Z,54.00
2019-02-22T18:18:51.280Z,53.90
2019-02-22T18:21:19.722Z,54.00
2019-02-22T18:23:48.080Z,53.80
2019-02-22T18:26:16.924Z,54.00
2019-02-22T18:28:45.367Z,54.00
2019-02-22T18:31:13.651Z,54.50
2019-02-22T18:33:42.052Z,54.00
2019-02-22T18:36:10.410Z,54.30
2019-02-22T18:38:38.734Z,53.90
2019-02-22T18:41:07.007Z,54.70
2019-02-22T18:43:35.371Z,54.00
2019-02-22T18:46:04.588Z,54.40
2019-02-22T18:48:32.945Z,53.40
2019-02-22T18:51:01.338Z,53.50
2019-02-22T18:53:29.699Z,54.00
2019-02-22T18:55:58.052Z,54.40
2019-02-22T18:58:26.367Z,54.30
2019-02-22T19:00:54.655Z,54.40
2019-02-22T19:03:22.931Z,54.20
2019-02-22T19:05:51.278Z,54.30
2019-02-22T19:08:19.608Z,54.60
2019-02-22T19:10:49.120Z,54.90
2019-02-22T19:13:17.493Z,54.60
2019-02-22T19:15:45.852Z,54.30
2019-02-22T19:18:14.127Z,54.60
2019-02-22T19:20:42.482Z,54.60
2019-02-22T19:23:10.874Z,55.30
2019-02-22T19:25:39.220Z,55.10
2019-02-22T19:28:07.632Z,55.20
2019-02-22T19:30:36.147Z,55.50
2019-02-22T19:33:04.492Z,55.50
2019-02-22T19:35:32.836Z,55.50
2019-02-22T19:38:01.192Z,55.70
2019-02-22T19:40:29.555Z,56.30
2019-02-22T19:42:58.995Z,56.60
2019-02-22T19:45:27.282Z,57.10
2019-02-22T19:47:55.638Z,57.60
2019-02-22T19:50:24.044Z,57.60
2019-02-22T19:52:52.490Z,57.90
2019-02-22T19:55:20.764Z,58.10
2019-02-22T19:57:49.338Z,57.90
2019-02-22T20:00:18.725Z,58.30
2019-02-22T20:02:47.074Z,58.00
2019-02-22T20:05:15.810Z,58.30
2019-02-22T20:07:44.307Z,58.60
2019-02-22T20:10:18.666Z,58.70
2019-02-22T20:12:47.174Z,58.90
2019-02-22T20:15:16.811Z,59.20
2019-02-22T20:17:53.277Z,59.70
2019-02-22T20:20:16.132Z,60.00
2019-02-22T20:22:45.787Z,60.00
2019-02-22T20:25:13.460Z,59.70
2019-02-22T20:27:43.094Z,60.00
2019-02-22T20:30:21.930Z,59.90
2019-02-22T20:32:52.629Z,60.80
2019-02-22T20:35:26.898Z,61.20
2019-02-22T20:37:55.305Z,61.20
2019-02-22T20:40:24.287Z,62.20
2019-02-22T20:43:12.689Z,61.40
2019-02-22T20:45:57.669Z,61.20
2019-02-22T20:51:27.389Z,60.80
2019-02-22T20:54:19.333Z,60.60
2019-02-22T20:56:48.044Z,60.80
2019-02-22T20:59:17.739Z,61.60
2019-02-22T21:01:46.367Z,61.50
2019-02-22T21:04:14.701Z,61.70
2019-02-22T21:06:43.050Z,62.40
2019-02-22T21:09:11.512Z,63.00
2019-02-22T21:11:39.819Z,62.90
2019-02-22T21:14:08.658Z,62.80
2019-02-22T21:16:37.026Z,62.80
2019-02-22T21:21:57.788Z,62.80
2019-02-22T21:24:26.059Z,63.50
2019-02-22T21:26:54.378Z,63.10
2019-02-22T21:29:22.655Z,63.30
2019-02-22T21:31:50.935Z,63.70
2019-02-22T21:34:20.121Z,63.60
2019-02-22T21:36:48.403Z,64.10
2019-02-22T21:39:16.836Z,64.20
2019-02-22T21:44:38.172Z,64.70
2019-02-22T21:47:08.234Z,65.20
2019-02-22T21:49:37.951Z,65.10
2019-02-22T21:52:11.367Z,65.50
2019-02-22T21:54:47.673Z,66.00
2019-02-22T21:57:15.944Z,66.50
2019-02-22T22:02:21.372Z,67.60
2019-02-22T22:04:49.720Z,68.20
2019-02-22T22:07:18.103Z,68.40
2019-02-22T22:09:46.408Z,68.50
2019-02-22T22:12:14.697Z,68.30
2019-02-22T22:14:43.048Z,67.70
2019-02-22T22:17:11.435Z,67.70
2019-02-22T22:19:39.739Z,67.80
2019-02-22T22:22:08.027Z,68.00
2019-02-22T22:24:36.417Z,68.50
2019-02-22T22:27:04.703Z,69.00
2019-02-22T22:29:33.001Z,69.10
2019-02-22T22:32:01.375Z,69.00
2019-02-22T22:34:29.655Z,68.20
2019-02-22T22:36:58.180Z,68.60
2019-02-22T22:39:26.578Z,68.20
2019-02-22T22:41:54.847Z,67.90
2019-02-22T22:44:23.131Z,68.20
2019-02-22T22:46:51.514Z,68.20
2019-02-22T22:49:19.860Z,68.70
2019-02-22T22:51:48.143Z,69.30
2019-02-22T22:54:16.454Z,69.10
2019-02-22T22:56:44.735Z,69.30
2019-02-22T22:59:13.024Z,69.40
2019-02-22T23:01:41.413Z,69.80
2019-02-22T23:04:09.829Z,70.00
2019-02-22T23:06:38.120Z,69.70
2019-02-22T23:09:08.298Z,69.70
2019-02-22T23:11:36.595Z,69.90
2019-02-22T23:14:04.902Z,70.40
2019-02-22T23:16:33.291Z,70.50
2019-02-22T23:19:02.274Z,70.40
2019-02-22T23:21:30.603Z,71.20
2019-02-22T23:23:58.951Z,70.90
2019-02-22T23:26:27.236Z,71.50
2019-02-22T23:28:55.587Z,72.10
2019-02-22T23:31:24.002Z,72.40
2019-02-22T23:33:52.295Z,72.60
2019-02-22T23:36:20.576Z,72.80
2019-02-22T23:38:49.236Z,72.50
2019-02-22T23:41:17.599Z,72.00
2019-02-22T23:43:45.938Z,71.90
2019-02-22T23:46:14.267Z,71.40
2019-02-22T23:48:42.552Z,71.20
2019-02-22T23:51:10.832Z,70.90
2019-02-22T23:53:39.220Z,71.30
2019-02-22T23:56:07.509Z,71.20
2019-02-22T23:58:35.788Z,71.60
